createdAt,value
2018-11-10T00:03:51.471Z,83.67
2018-11-10T00:08:54.553Z,83.30
2018-11-10T00:13:57.623Z,77.20
2018-11-10T00:19:00.688Z,70.83
2018-11-10T00:24:03.768Z,77.47
2018-11-10T00:29:07.233Z,83.63
2018-11-10T00:34:10.308Z,79.87
2018-11-10T00:39:13.396Z,92.23
2018-11-10T00:44:16.560Z,85.53
2018-11-10T00:49:19.653Z,80.03
2018-11-10T00:54:22.724Z,83.47
2018-11-10T00:59:25.793Z,90.90
2018-11-10T01:04:28.861Z,82.00
2018-11-10T01:09:31.942Z,73.33
2018-11-10T01:14:35.205Z,85.50
2018-11-10T01:19:38.285Z,76.60
2018-11-10T01:24:41.350Z,73.30
2018-11-10T01:29:44.408Z,77.60
2018-11-10T01:34:47.480Z,83.23
2018-11-10T01:39:50.623Z,89.43
2018-11-10T01:44:53.729Z,76.37
2018-11-10T01:49:56.804Z,80.63
2018-11-10T01:55:08.143Z,85.70
2018-11-10T02:00:15.888Z,83.73
2018-11-10T02:05:18.968Z,96.67
2018-11-10T02:10:22.064Z,90.80
2018-11-10T02:15:25.132Z,93.80
2018-11-10T02:20:28.243Z,100.43
2018-11-10T02:25:31.499Z,94.47
2018-11-10T02:30:34.589Z,117.47
2018-11-10T02:35:37.699Z,108.33
2018-11-10T02:40:40.788Z,99.80
2018-11-10T02:45:43.894Z,106.30
2018-11-10T02:50:46.991Z,120.57
2018-11-10T02:55:50.185Z,103.53
2018-11-10T03:00:53.272Z,90.50
2018-11-10T03:05:56.397Z,98.90
2018-11-10T03:10:59.485Z,105.93
2018-11-10T03:16:02.576Z,98.77
2018-11-10T03:21:14.070Z,103.53
2018-11-10T03:26:17.146Z,99.17
2018-11-10T03:31:20.290Z,101.53
2018-11-10T03:36:23.385Z,109.53
2018-11-10T03:41:26.472Z,95.10
2018-11-10T03:46:29.560Z,90.03
2018-11-10T03:51:32.734Z,97.07
2018-11-10T03:56:35.846Z,85.67
2018-11-10T04:01:38.956Z,101.77
2018-11-10T04:06:42.071Z,105.57
2018-11-10T04:11:45.183Z,104.40
2018-11-10T04:16:48.287Z,92.53
2018-11-10T04:21:51.411Z,88.13
2018-11-10T04:26:54.524Z,91.37
2018-11-10T04:31:57.624Z,86.20
2018-11-10T04:42:33.812Z,79.37
2018-11-10T04:47:36.975Z,79.73
2018-11-10T04:52:40.493Z,89.73
2018-11-10T04:57:43.580Z,74.37
2018-11-10T05:02:46.674Z,77.47
2018-11-10T05:07:49.809Z,80.87
2018-11-10T05:12:52.892Z,84.70
2018-11-10T05:17:56.018Z,88.97
2018-11-10T05:22:59.141Z,80.13
2018-11-10T05:28:02.249Z,79.70
2018-11-10T05:33:11.211Z,79.73
2018-11-10T05:38:14.320Z,77.17
2018-11-10T05:43:17.418Z,80.13
2018-11-10T05:48:20.519Z,82.77
2018-11-10T05:53:23.625Z,75.40
2018-11-10T05:58:26.708Z,75.77
2018-11-10T06:09:07.369Z,71.87
2018-11-10T06:14:10.488Z,79.70
2018-11-10T06:19:21.443Z,78.77
2018-11-10T06:24:24.557Z,81.27
2018-11-10T06:29:27.699Z,66.57
2018-11-10T06:34:30.824Z,68.63
2018-11-10T06:39:37.617Z,70.67
2018-11-10T06:44:40.775Z,77.53
2018-11-10T06:49:43.923Z,65.80
2018-11-10T06:54:47.059Z,72.93
2018-11-10T06:59:50.201Z,69.93
2018-11-10T07:04:58.072Z,60.23
2018-11-10T07:10:01.239Z,59.43
2018-11-10T07:15:04.807Z,66.83
2018-11-10T07:20:07.948Z,62.97
2018-11-10T07:25:11.108Z,59.97
2018-11-10T07:30:14.659Z,59.23
2018-11-10T07:35:22.812Z,67.00
2018-11-10T07:40:25.921Z,65.73
2018-11-10T07:45:28.985Z,60.73
2018-11-10T07:50:40.381Z,57.10
2018-11-10T07:55:43.548Z,52.47
2018-11-10T08:00:46.588Z,56.40
2018-11-10T08:05:53.552Z,61.37
2018-11-10T08:10:57.963Z,47.20
2018-11-10T08:16:01.217Z,57.00
2018-11-10T08:21:04.604Z,53.40
2018-11-10T08:26:08.165Z,54.37
2018-11-10T08:31:11.409Z,52.83
2018-11-10T08:36:14.641Z,58.87
2018-11-10T08:41:17.888Z,55.27
2018-11-10T08:46:21.002Z,48.77
2018-11-10T08:51:24.180Z,56.83
2018-11-10T08:56:27.280Z,51.07
2018-11-10T09:01:30.374Z,59.27
2018-11-10T09:06:33.529Z,51.83
2018-11-10T09:11:36.947Z,51.63
2018-11-10T09:16:40.129Z,53.60
2018-11-10T09:21:43.390Z,52.40
2018-11-10T09:26:49.885Z,44.00
2018-11-10T09:31:52.971Z,56.27
2018-11-10T09:36:56.126Z,57.17
2018-11-10T09:41:59.378Z,52.80
2018-11-10T09:47:02.422Z,49.40
2018-11-10T09:52:05.525Z,50.87
2018-11-10T09:57:08.851Z,51.50
2018-11-10T10:02:12.409Z,52.33
2018-11-10T10:07:15.200Z,53.30
2018-11-10T10:12:18.404Z,52.10
2018-11-10T10:17:21.600Z,50.47
2018-11-10T10:22:25.564Z,50.37
2018-11-10T10:27:28.765Z,49.63
2018-11-10T10:32:31.699Z,48.27
2018-11-10T10:37:34.850Z,45.00
2018-11-10T10:42:38.037Z,43.53
2018-11-10T10:47:41.347Z,45.37
2018-11-10T10:52:44.448Z,48.43
2018-11-10T10:57:48.552Z,46.20
2018-11-10T11:02:57.229Z,44.47
2018-11-10T11:08:04.317Z,46.30
2018-11-10T11:13:07.428Z,44.10
2018-11-10T11:18:10.567Z,47.10
2018-11-10T11:23:13.670Z,42.17
2018-11-10T11:28:16.875Z,44.47
2018-11-10T11:33:19.967Z,42.70
2018-11-10T11:38:23.052Z,44.23
2018-11-10T11:43:26.162Z,47.97
2018-11-10T11:48:29.264Z,38.63
2018-11-10T11:53:32.456Z,45.73
2018-11-10T11:58:35.632Z,42.90
2018-11-10T12:03:38.971Z,44.23
2018-11-10T12:08:42.072Z,39.30
2018-11-10T12:13:45.181Z,40.17
2018-11-10T12:18:48.265Z,40.90
2018-11-10T12:23:51.381Z,37.87
2018-11-10T12:28:54.487Z,38.17
2018-11-10T12:33:58.757Z,35.00
2018-11-10T12:39:01.854Z,34.33
2018-11-10T12:44:30.025Z,36.20
2018-11-10T12:49:33.125Z,35.80
2018-11-10T12:54:36.265Z,36.73
2018-11-10T12:59:39.397Z,41.50
2018-11-10T13:04:53.339Z,35.53
2018-11-10T13:09:56.453Z,35.27
2018-11-10T13:14:59.579Z,34.33
2018-11-10T13:20:02.729Z,35.30
2018-11-10T13:25:06.136Z,36.60
2018-11-10T13:30:10.793Z,35.63
2018-11-10T13:35:13.906Z,35.80
2018-11-10T13:40:17.017Z,40.17
2018-11-10T13:45:20.129Z,38.37
2018-11-10T13:55:59.837Z,37.27
2018-11-10T14:01:06.576Z,37.23
2018-11-10T14:06:09.802Z,34.53
2018-11-10T14:11:12.893Z,37.97
2018-11-10T14:16:16.024Z,36.83
2018-11-10T14:21:19.133Z,30.93
2018-11-10T14:26:22.277Z,34.70
2018-11-10T14:31:25.328Z,34.00
2018-11-10T14:36:28.427Z,31.70
2018-11-10T14:41:31.512Z,27.73
2018-11-10T14:46:35.195Z,30.23
2018-11-10T14:51:38.265Z,30.47
2018-11-10T14:56:41.355Z,33.50
2018-11-10T15:01:44.524Z,30.80
2018-11-10T15:06:47.605Z,29.63
2018-11-10T15:11:50.837Z,35.10
2018-11-10T15:16:53.796Z,35.43
2018-11-10T15:21:56.904Z,32.93
2018-11-10T15:27:02.138Z,29.90
2018-11-10T15:32:05.910Z,33.33
2018-11-10T15:37:09.028Z,29.83
2018-11-10T15:42:12.116Z,29.90
2018-11-10T15:47:15.218Z,28.10
2018-11-10T15:52:18.368Z,47.73
2018-11-10T15:57:21.456Z,56.33
2018-11-10T16:02:25.700Z,27.10
2018-11-10T16:07:28.988Z,29.40
2018-11-10T16:12:32.084Z,30.50
2018-11-10T16:17:35.167Z,28.70
2018-11-10T16:22:38.279Z,29.70
2018-11-10T16:27:41.368Z,34.67
2018-11-10T16:32:52.829Z,28.80
2018-11-10T16:37:55.910Z,27.80
2018-11-10T16:42:59.031Z,32.37
2018-11-10T16:48:02.136Z,29.40
2018-11-10T16:53:07.476Z,31.43
2018-11-10T16:58:10.530Z,33.03
2018-11-10T17:03:13.607Z,28.80
2018-11-10T17:08:16.764Z,31.83
2018-11-10T17:13:19.860Z,29.40
2018-11-10T17:18:23.147Z,31.20
2018-11-10T17:23:26.254Z,36.00
2018-11-10T17:28:29.353Z,36.37
2018-11-10T17:33:32.457Z,34.53
2018-11-10T17:38:35.545Z,35.07
2018-11-10T17:43:38.658Z,35.90
2018-11-10T17:48:41.772Z,40.63
2018-11-10T17:53:44.885Z,34.00
2018-11-10T17:58:49.280Z,34.77
2018-11-10T18:03:52.475Z,39.43
2018-11-10T18:08:55.520Z,36.87
2018-11-10T18:13:58.691Z,34.67
2018-11-10T18:19:02.029Z,39.37
2018-11-10T18:24:05.488Z,40.40
2018-11-10T18:29:08.893Z,39.43
2018-11-10T18:34:13.640Z,42.33
2018-11-10T18:39:17.083Z,37.00
2018-11-10T18:44:20.576Z,41.60
2018-11-10T18:49:27.244Z,42.23
2018-11-10T18:54:30.720Z,38.47
2018-11-10T18:59:34.108Z,42.87
2018-11-10T19:04:37.658Z,40.83
2018-11-10T19:09:41.057Z,45.87
2018-11-10T19:14:44.140Z,46.47
2018-11-10T19:19:47.695Z,42.63
2018-11-10T19:24:50.802Z,42.17
2018-11-10T19:29:53.882Z,49.73
2018-11-10T19:34:57.224Z,44.73
2018-11-10T19:40:00.335Z,46.47
2018-11-10T19:45:04.083Z,44.87
2018-11-10T19:50:07.490Z,44.87
2018-11-10T19:55:13.255Z,47.33
2018-11-10T20:00:18.828Z,48.93
2018-11-10T20:05:22.323Z,46.03
2018-11-10T20:10:25.384Z,50.10
2018-11-10T20:15:28.566Z,51.07
2018-11-10T20:20:31.769Z,45.90
2018-11-10T20:25:45.508Z,48.97
2018-11-10T20:30:48.604Z,52.67
2018-11-10T20:35:51.720Z,43.60
2018-11-10T20:41:00.960Z,49.27
2018-11-10T20:46:04.214Z,59.00
2018-11-10T20:51:07.306Z,46.87
2018-11-10T20:56:10.397Z,48.77
2018-11-10T21:01:13.480Z,49.07
2018-11-10T21:06:17.769Z,47.77
2018-11-10T21:11:20.874Z,41.30
2018-11-10T21:16:29.081Z,39.90
2018-11-10T21:21:32.220Z,43.90
2018-11-10T21:26:35.435Z,45.60
2018-11-10T21:37:13.541Z,45.33
2018-11-10T21:42:16.988Z,49.83
2018-11-10T21:52:48.614Z,54.50
2018-11-10T21:57:51.708Z,46.33
2018-11-10T22:02:54.795Z,49.87
2018-11-10T22:07:57.888Z,45.93
2018-11-10T22:13:01.109Z,47.93
2018-11-10T22:18:04.404Z,48.30
2018-11-10T22:23:07.545Z,52.57
2018-11-10T22:28:10.620Z,44.33
2018-11-10T22:33:13.702Z,48.50
2018-11-10T22:38:16.888Z,54.20
2018-11-10T22:43:20.024Z,50.70
2018-11-10T22:48:23.113Z,48.63
2018-11-10T22:53:26.269Z,50.03
2018-11-10T22:58:29.370Z,51.77
2018-11-10T23:03:32.550Z,49.93
2018-11-10T23:08:35.679Z,46.43
2018-11-10T23:13:38.752Z,49.60
2018-11-10T23:18:41.824Z,52.93
2018-11-10T23:23:44.898Z,52.50
2018-11-10T23:28:47.913Z,52.27
2018-11-10T23:33:50.976Z,50.63
2018-11-10T23:38:54.055Z,44.47
2018-11-10T23:43:57.163Z,47.60
2018-11-10T23:49:00.473Z,45.33
2018-11-10T23:54:03.639Z,44.67
2018-11-10T23:59:06.740Z,45.60
